Time;durP1;ratioP1;P1;durP2;ratioP2;P2;SDS_P1;SDS_P2;PMS_P1;PMS_P2;Temp;Humidity;BMP_temperature;BMP_pressure;BME280_temperature;BME280_humidity;BME280_pressure;Samples;Min_cycle;Max_cycle;Signal;HPM_P1;HPM_P2
2020/12/04 00:02:11;;;;;;;10.70;9.67;;;;;;;1.76;65.31;98186.53;5020151;28;20677;-79
2020/12/04 00:04:37;;;;;;;9.13;8.23;;;;;;;1.75;65.02;98189.13;5021721;28;20743;-80
2020/12/04 00:07:04;;;;;;;9.57;8.63;;;;;;;1.81;66.62;98186.44;5022674;28;20692;-79
2020/12/04 00:09:30;;;;;;;9.90;8.90;;;;;;;1.81;66.37;98171.00;5022880;28;20211;-78
2020/12/04 00:11:56;;;;;;;10.03;9.03;;;;;;;1.87;66.57;98178.59;5021710;28;20217;-79
2020/12/04 00:14:22;;;;;;;10.00;9.00;;;;;;;1.91;66.57;98162.22;5024215;28;20256;-78
2020/12/04 00:16:48;;;;;;;9.20;8.30;;;;;;;1.92;66.26;98156.22;5024399;28;20254;-78
2020/12/04 00:19:14;;;;;;;8.93;8.10;;;;;;;1.93;66.23;98162.19;5023480;28;20206;-79
2020/12/04 00:21:41;;;;;;;10.07;8.97;;;;;;;1.91;65.96;98154.50;5023645;28;20245;-79
2020/12/04 00:24:06;;;;;;;9.43;8.53;;;;;;;1.90;65.58;98155.41;5024957;28;20203;-79
2020/12/04 00:26:36;;;;;;;9.20;8.30;;;;;;;1.93;66.39;98145.03;5023720;28;20213;-79
2020/12/04 00:29:03;;;;;;;10.00;8.77;;;;;;;1.85;66.12;98140.94;5019305;28;20215;-78
2020/12/04 00:31:29;;;;;;;10.47;9.47;;;;;;;1.91;66.07;98144.22;5025120;28;20259;-79
2020/12/04 00:33:54;;;;;;;9.53;8.63;;;;;;;1.95;66.60;98145.84;5024262;28;20250;-79
2020/12/04 00:36:20;;;;;;;10.73;9.47;;;;;;;1.85;65.73;98136.63;5024688;28;20203;-79
2020/12/04 00:38:46;;;;;;;9.83;8.70;;;;;;;1.93;66.67;98127.00;5024214;28;20249;-79
2020/12/04 00:41:12;;;;;;;9.83;8.90;;;;;;;1.88;65.56;98128.81;5021390;28;20207;-78
2020/12/04 00:43:38;;;;;;;9.37;8.47;;;;;;;1.94;66.45;98126.16;5024648;28;20576;-78
2020/12/04 00:46:04;;;;;;;9.33;8.43;;;;;;;1.92;67.11;98122.75;5024674;28;20657;-78
2020/12/04 00:48:30;;;;;;;9.87;8.87;;;;;;;1.91;66.91;98125.38;5023782;28;20249;-78
2020/12/04 00:50:56;;;;;;;10.10;9.10;;;;;;;1.93;66.82;98114.16;5024138;28;20226;-78
2020/12/04 00:53:22;;;;;;;10.37;9.23;;;;;;;1.92;66.84;98107.31;5024184;28;20234;-79
2020/12/04 00:55:49;;;;;;;9.77;8.83;;;;;;;1.96;67.74;98106.38;5024592;28;20692;-78
2020/12/04 00:58:15;;;;;;;10.07;9.07;;;;;;;1.93;67.37;98095.31;5023787;28;20281;-79
2020/12/04 01:00:41;;;;;;;9.77;8.87;;;;;;;1.90;66.91;98087.63;5023803;28;20227;-78
2020/12/04 01:03:08;;;;;;;10.33;9.33;;;;;;;1.95;68.03;98084.09;5015783;28;20211;-78
2020/12/04 01:05:33;;;;;;;9.87;8.97;;;;;;;1.94;66.90;98081.53;5024885;28;20207;-79
2020/12/04 01:07:59;;;;;;;11.20;10.00;;;;;;;1.93;65.91;98080.72;5023961;28;20257;-77
2020/12/04 01:10:25;;;;;;;10.87;9.90;;;;;;;2.03;66.67;98091.63;5024121;28;20672;-76
2020/12/04 01:12:51;;;;;;;11.13;9.57;;;;;;;1.96;65.35;98080.66;5019862;28;20231;-78
2020/12/04 01:15:17;;;;;;;10.07;9.07;;;;;;;1.98;66.08;98080.59;5015909;28;20657;-77
2020/12/04 01:17:43;;;;;;;10.07;9.13;;;;;;;2.05;65.99;98077.00;5017062;28;20883;-78
2020/12/04 01:20:09;;;;;;;9.90;9.00;;;;;;;2.04;66.36;98082.19;5016234;28;20203;-78
2020/12/04 01:22:35;;;;;;;10.43;9.40;;;;;;;2.09;66.32;98078.63;5016958;28;20723;-78
2020/12/04 01:25:01;;;;;;;10.93;9.83;;;;;;;2.14;66.49;98081.09;5016364;28;20700;-77
2020/12/04 01:27:27;;;;;;;9.90;8.90;;;;;;;2.12;66.21;98083.72;5016658;28;20692;-77
2020/12/04 01:29:53;;;;;;;11.03;9.57;;;;;;;2.22;66.19;98070.63;5016945;28;20763;-77
2020/12/04 01:32:19;;;;;;;10.20;9.20;;;;;;;2.25;66.45;98079.13;5016340;28;20215;-78
2020/12/04 01:34:44;;;;;;;10.90;9.80;;;;;;;2.26;65.97;98069.66;5016174;28;20679;-77
2020/12/04 01:37:11;;;;;;;11.37;9.90;;;;;;;2.30;65.91;98056.72;5013193;28;20261;-78
2020/12/04 01:39:37;;;;;;;10.00;9.00;;;;;;;2.37;65.92;98057.41;5021313;28;20245;-78
2020/12/04 01:42:03;;;;;;;10.03;9.03;;;;;;;2.35;66.93;98048.88;5016211;28;20210;-78
2020/12/04 01:44:29;;;;;;;10.70;9.20;;;;;;;2.35;66.36;98048.88;5016194;28;20253;-78
2020/12/04 01:46:55;;;;;;;10.20;9.23;;;;;;;2.39;65.46;98056.47;5012165;28;20230;-78
2020/12/04 01:49:21;;;;;;;9.47;8.67;;;;;;;2.44;65.99;98052.94;5023123;28;20221;-77
2020/12/04 01:51:48;;;;;;;9.20;8.30;;;;;;;2.45;65.93;98052.91;5015762;28;20676;-78
2020/12/04 01:54:17;;;;;;;10.33;8.40;;;;;;;2.38;65.89;98052.22;5008229;28;20222;-78
2020/12/04 01:56:43;;;;;;;8.90;8.10;;;;;;;2.32;66.28;98044.66;5015379;28;20697;-77
2020/12/04 01:59:08;;;;;;;10.70;9.30;;;;;;;2.36;65.94;98042.84;5023586;28;20213;-77
2020/12/04 02:01:38;;;;;;;10.07;9.07;;;;;;;2.34;65.69;98036.88;5015206;28;20578;-77
2020/12/04 02:04:07;;;;;;;10.13;9.13;;;;;;;2.34;66.04;98032.59;5023423;28;20204;-77
2020/12/04 02:06:40;;;;;;;10.17;9.17;;;;;;;2.41;66.66;98033.25;5016238;28;20215;-78
2020/12/04 02:09:10;;;;;;;9.77;8.87;;;;;;;2.42;65.85;98034.97;5023389;28;20573;-78
2020/12/04 02:11:38;;;;;;;10.27;9.20;;;;;;;2.44;66.18;98028.06;5015299;28;20716;-78
2020/12/04 02:14:05;;;;;;;9.23;8.40;;;;;;;2.46;66.20;98018.56;5023042;28;20227;-78
2020/12/04 02:16:32;;;;;;;10.10;8.63;;;;;;;2.44;66.22;98020.31;5015957;28;20265;-78
2020/12/04 02:18:58;;;;;;;9.27;8.37;;;;;;;2.53;65.44;98014.09;5023208;28;20206;-78
2020/12/04 02:21:24;;;;;;;9.70;8.70;;;;;;;2.58;65.59;98010.50;5015539;28;20298;-77
2020/12/04 02:23:51;;;;;;;9.47;8.57;;;;;;;2.58;65.61;98001.94;5023949;28;20203;-77
2020/12/04 02:26:19;;;;;;;9.37;8.47;;;;;;;2.59;64.98;97999.31;5014553;28;20206;-77
2020/12/04 02:28:45;;;;;;;10.23;9.13;;;;;;;2.62;65.47;98008.72;5022703;28;20584;-78
2020/12/04 02:31:12;;;;;;;9.53;8.60;;;;;;;2.61;65.82;97993.28;5015892;28;20203;-78
2020/12/04 02:33:38;;;;;;;9.97;9.00;;;;;;;2.69;65.42;97986.19;5023384;28;20226;-77
2020/12/04 02:36:05;;;;;;;8.97;8.17;;;;;;;2.72;65.05;97986.97;5014993;28;20203;-77
2020/12/04 02:38:32;;;;;;;9.20;8.33;;;;;;;2.70;66.04;97975.03;5022768;28;20237;-78
2020/12/04 02:40:58;;;;;;;9.80;8.80;;;;;;;2.75;66.33;97981.72;4999895;28;20793;-78
2020/12/04 02:43:26;;;;;;;9.50;8.60;;;;;;;2.77;65.37;97973.94;5018514;28;20260;-77
2020/12/04 02:45:51;;;;;;;8.93;8.13;;;;;;;2.76;65.52;97970.53;5015394;28;20295;-78
2020/12/04 02:48:17;;;;;;;9.37;8.47;;;;;;;2.78;65.24;97960.19;5022784;28;20760;-78
2020/12/04 02:50:43;;;;;;;8.57;7.77;;;;;;;2.74;64.97;97962.00;5015005;28;20241;-77
2020/12/04 02:53:10;;;;;;;8.97;8.17;;;;;;;2.83;64.44;97957.50;5023106;28;20273;-78
2020/12/04 02:55:36;;;;;;;9.63;8.73;;;;;;;2.82;64.75;97955.81;5014423;28;20246;-78
2020/12/04 02:58:02;;;;;;;8.77;7.87;;;;;;;2.77;65.36;97951.63;5022366;28;20280;-77
2020/12/04 03:00:28;;;;;;;8.40;7.50;;;;;;;2.81;65.40;97960.09;5014941;28;20258;-78
2020/12/04 03:02:54;;;;;;;9.20;8.33;;;;;;;2.85;65.56;97972.00;5022674;28;20203;-78
2020/12/04 03:05:20;;;;;;;8.80;8.00;;;;;;;2.90;65.12;97970.16;5015167;28;20290;-78
2020/12/04 03:07:48;;;;;;;8.83;8.03;;;;;;;2.91;64.46;97964.09;5022527;28;20718;-78
2020/12/04 03:10:14;;;;;;;8.77;7.90;;;;;;;2.95;64.87;97962.28;5006829;28;20203;-77
2020/12/04 03:12:41;;;;;;;8.33;7.53;;;;;;;2.99;64.76;97961.31;5012388;28;20302;-78
2020/12/04 03:15:07;;;;;;;9.20;8.30;;;;;;;2.95;64.46;97960.59;5016139;28;20203;-78
2020/12/04 03:17:33;;;;;;;8.63;7.83;;;;;;;2.94;64.84;97964.03;5020714;28;20226;-78
2020/12/04 03:19:59;;;;;;;8.77;7.93;;;;;;;2.95;64.80;97968.31;5016873;28;20795;-78
2020/12/04 03:22:25;;;;;;;9.13;8.23;;;;;;;2.86;64.22;97978.88;5019181;28;20203;-77
2020/12/04 03:24:52;;;;;;;9.30;8.40;;;;;;;2.86;64.54;97976.28;5017171;28;20256;-78
2020/12/04 03:27:18;;;;;;;9.20;8.40;;;;;;;2.91;63.54;97976.16;5018017;28;20234;-77
2020/12/04 03:29:47;;;;;;;8.50;7.70;;;;;;;2.98;63.48;97963.06;5018190;28;20247;-78
2020/12/04 03:32:13;;;;;;;8.20;7.40;;;;;;;2.92;64.42;97958.09;5017037;28;20206;-78
2020/12/04 03:34:39;;;;;;;9.60;8.70;;;;;;;3.03;64.28;97952.59;5018655;28;20280;-78
2020/12/04 03:37:05;;;;;;;10.43;9.33;;;;;;;3.05;65.33;97944.84;5016582;28;20632;-78
2020/12/04 03:39:30;;;;;;;10.03;9.13;;;;;;;3.01;65.48;97946.66;5015557;28;20199;-77
2020/12/04 03:41:56;;;;;;;10.33;9.30;;;;;;;2.95;64.84;97936.53;4997930;28;20294;-78
2020/12/04 03:44:22;;;;;;;10.43;9.43;;;;;;;2.92;65.43;97940.03;5020057;28;20719;-78
2020/12/04 03:46:49;;;;;;;10.37;9.40;;;;;;;2.86;65.55;97937.66;5013440;28;20258;-78
2020/12/04 03:49:15;;;;;;;11.87;10.50;;;;;;;2.80;66.59;97930.09;5022021;28;20223;-78
2020/12/04 03:51:41;;;;;;;10.07;9.10;;;;;;;2.81;66.14;97924.03;5013829;28;20210;-78
2020/12/04 03:54:08;;;;;;;10.30;9.30;;;;;;;2.78;66.48;97930.13;5021149;28;20231;-78
2020/12/04 03:56:33;;;;;;;12.10;11.00;;;;;;;2.78;66.78;97922.41;5013597;28;20261;-78
2020/12/04 03:58:59;;;;;;;11.93;10.73;;;;;;;2.75;66.60;97916.47;5021391;28;20211;-78
2020/12/04 04:01:26;;;;;;;11.40;10.30;;;;;;;2.80;66.31;97918.94;5013975;28;20610;-78
2020/12/04 04:03:52;;;;;;;10.40;9.40;;;;;;;2.73;67.39;97913.09;5022420;28;20198;-78
2020/12/04 04:06:18;;;;;;;10.37;9.37;;;;;;;2.72;67.20;97909.69;5010324;28;20196;-78
2020/12/04 04:08:45;;;;;;;10.83;9.47;;;;;;;2.68;66.81;97910.69;5019428;28;20582;-78
2020/12/04 04:11:11;;;;;;;13.03;9.97;;;;;;;2.76;67.08;97911.31;5013801;28;20206;-78
2020/12/04 04:13:37;;;;;;;10.73;9.67;;;;;;;2.72;66.79;97909.69;5019162;28;20227;-78
2020/12/04 04:16:03;;;;;;;11.07;9.87;;;;;;;2.74;66.73;97905.34;5013470;28;20206;-78
2020/12/04 04:18:29;;;;;;;9.10;8.30;;;;;;;2.74;65.66;97902.78;5021890;28;20762;-78
2020/12/04 04:20:55;;;;;;;9.20;8.40;;;;;;;2.69;65.75;97906.34;5013995;28;20294;-78
2020/12/04 04:23:21;;;;;;;9.10;8.20;;;;;;;2.72;65.80;97891.66;5021421;28;20203;-78
2020/12/04 04:25:47;;;;;;;9.13;8.23;;;;;;;2.80;65.82;97888.88;5013967;28;20273;-78
2020/12/04 04:28:13;;;;;;;9.23;8.40;;;;;;;2.83;65.27;97896.50;5014513;28;20238;-78
2020/12/04 04:30:39;;;;;;;9.33;8.43;;;;;;;2.88;65.26;97886.91;5014015;28;20203;-78
2020/12/04 04:33:06;;;;;;;8.67;7.87;;;;;;;2.93;65.17;97889.34;5021845;28;20277;-78
2020/12/04 04:35:32;;;;;;;9.20;8.30;;;;;;;3.00;64.06;97877.16;5012161;28;20203;-78
2020/12/04 04:37:59;;;;;;;8.57;7.67;;;;;;;2.99;64.88;97876.28;5020863;28;20230;-77
2020/12/04 04:40:25;;;;;;;9.43;8.53;;;;;;;3.02;64.70;97870.22;5003613;28;20204;-78
2020/12/04 04:43:05;;;;;;;9.53;8.63;;;;;;;3.06;64.85;97875.22;5012096;28;20206;-78
2020/12/04 04:45:31;;;;;;;9.60;8.70;;;;;;;3.00;64.07;97877.97;5012055;28;20283;-77
2020/12/04 04:47:58;;;;;;;9.63;8.53;;;;;;;3.06;64.66;97872.66;5012313;28;20230;-78
2020/12/04 04:50:23;;;;;;;11.20;10.10;;;;;;;3.12;64.54;97863.88;5014415;28;20256;-78
2020/12/04 04:52:50;;;;;;;9.73;8.83;;;;;;;3.11;65.39;97855.31;5025216;28;20239;-78
2020/12/04 04:55:17;;;;;;;10.30;9.30;;;;;;;3.08;64.64;97860.56;5016519;28;20211;-77
2020/12/04 04:57:43;;;;;;;9.40;8.50;;;;;;;3.07;64.52;97856.31;5023728;28;20234;-78
2020/12/04 05:00:09;;;;;;;9.23;8.40;;;;;;;3.08;64.19;97849.41;5007564;28;20729;-77
2020/12/04 05:02:35;;;;;;;9.93;8.97;;;;;;;3.06;64.05;97849.44;5011297;28;20699;-78
2020/12/04 05:05:01;;;;;;;10.33;9.33;;;;;;;3.06;64.01;97846.03;5017925;28;20206;-77
2020/12/04 05:07:29;;;;;;;9.63;8.60;;;;;;;3.13;63.49;97848.38;5022629;28;20272;-78
2020/12/04 05:10:12;;;;;;;11.47;9.03;;;;;;;3.21;63.84;97855.03;5019216;28;20203;-78
2020/12/04 05:12:39;;;;;;;9.33;8.43;;;;;;;3.18;64.21;97851.66;5020483;28;20213;-78
2020/12/04 05:15:22;;;;;;;8.80;8.00;;;;;;;3.22;64.34;97861.88;5017433;28;20199;-78
2020/12/04 05:18:17;;;;;;;10.07;9.17;;;;;;;3.21;63.95;97863.63;5024207;28;20261;-78
2020/12/04 05:20:45;;;;;;;9.80;8.90;;;;;;;3.23;64.53;97856.69;4967064;28;20333;-78
2020/12/04 05:23:12;;;;;;;9.83;8.83;;;;;;;3.29;63.77;97855.63;5024757;28;20206;-77
2020/12/04 05:25:39;;;;;;;9.90;9.00;;;;;;;3.26;64.12;97850.56;5015924;28;20261;-78
2020/12/04 05:28:11;;;;;;;10.80;9.73;;;;;;;3.32;63.17;97840.91;5023492;28;20656;-77
2020/12/04 05:30:37;;;;;;;10.83;9.83;;;;;;;3.26;63.83;97850.56;5016028;28;20214;-78
2020/12/04 05:33:04;;;;;;;9.13;8.30;;;;;;;3.25;63.81;97856.59;5023575;28;20593;-78
2020/12/04 05:35:30;;;;;;;10.50;9.50;;;;;;;3.26;63.66;97841.09;5016048;28;20253;-78
2020/12/04 05:38:08;;;;;;;9.83;8.93;;;;;;;3.31;63.85;97846.09;5023447;28;20273;-78
2020/12/04 05:40:34;;;;;;;9.57;8.67;;;;;;;3.33;64.18;97839.16;5003676;28;20225;-78
2020/12/04 05:43:00;;;;;;;10.50;9.27;;;;;;;3.28;64.50;97846.22;5015008;28;20213;-78
2020/12/04 05:45:27;;;;;;;11.07;9.70;;;;;;;3.30;64.13;97836.69;5016075;28;20230;-77
2020/12/04 05:47:52;;;;;;;9.80;8.80;;;;;;;3.31;64.07;97834.06;5023689;28;20280;-78
2020/12/04 05:50:18;;;;;;;11.40;9.47;;;;;;;3.34;64.65;97827.97;5016178;28;20207;-78
2020/12/04 05:52:48;;;;;;;10.00;9.10;;;;;;;3.37;64.80;97833.03;5022763;28;20210;-78
2020/12/04 05:55:15;;;;;;;10.17;9.17;;;;;;;3.38;64.29;97827.81;5015968;28;20202;-78
2020/12/04 05:57:46;;;;;;;10.00;9.00;;;;;;;3.35;64.41;97842.53;5015182;28;20227;-78
2020/12/04 06:00:14;;;;;;;10.07;9.17;;;;;;;3.39;64.59;97851.88;5015665;28;20274;-78
2020/12/04 06:02:41;;;;;;;11.27;9.33;;;;;;;3.41;64.80;97836.34;5021735;28;20210;-77
2020/12/04 06:05:09;;;;;;;10.93;9.93;;;;;;;3.48;64.22;97843.84;5016003;28;20251;-77
2020/12/04 06:07:35;;;;;;;9.97;9.07;;;;;;;3.41;64.09;97852.69;5021111;28;20230;-78
2020/12/04 06:10:01;;;;;;;11.07;9.97;;;;;;;3.49;64.65;97847.25;5016766;28;20205;-78
2020/12/04 06:12:27;;;;;;;11.30;10.17;;;;;;;3.44;64.86;97852.56;5019729;28;20206;-78
2020/12/04 06:14:53;;;;;;;11.07;9.90;;;;;;;3.48;65.12;97840.41;5017778;28;20280;-78
2020/12/04 06:17:19;;;;;;;16.43;11.60;;;;;;;3.50;64.51;97836.06;5018636;28;20280;-77
2020/12/04 06:19:46;;;;;;;11.97;10.77;;;;;;;3.45;65.11;97831.06;5012997;28;20198;-78
2020/12/04 06:22:13;;;;;;;12.30;11.00;;;;;;;3.47;65.34;97833.56;5024183;28;20260;-79
2020/12/04 06:25:04;;;;;;;11.87;10.77;;;;;;;3.47;65.79;97841.28;5034656;28;20202;-78
2020/12/04 06:27:41;;;;;;;12.37;11.17;;;;;;;3.49;65.85;97844.66;5013860;28;20222;-78
2020/12/04 06:30:08;;;;;;;12.23;11.00;;;;;;;3.38;66.55;97840.72;5032560;28;20239;-78
2020/12/04 06:32:35;;;;;;;11.30;10.17;;;;;;;3.45;66.33;97836.22;5033942;28;20214;-79
2020/12/04 06:35:02;;;;;;;11.90;10.70;;;;;;;3.50;65.80;97847.19;5030139;28;20243;-78
2020/12/04 06:37:34;;;;;;;11.43;10.23;;;;;;;3.51;66.38;97843.75;5027467;28;20226;-79
2020/12/04 06:40:22;;;;;;;11.97;10.73;;;;;;;3.60;66.40;97829.69;5026980;28;20191;-79
2020/12/04 06:42:48;;;;;;;12.57;11.27;;;;;;;3.60;66.30;97836.59;5028490;28;20254;-79
2020/12/04 06:45:14;;;;;;;12.77;10.97;;;;;;;3.51;67.04;97840.34;5028348;28;20211;-79
2020/12/04 06:47:40;;;;;;;12.40;11.10;;;;;;;3.61;67.01;97838.28;5029638;28;20285;-79
2020/12/04 06:50:07;;;;;;;12.67;11.33;;;;;;;3.60;67.43;97837.44;5029596;28;20229;-79
2020/12/04 06:52:33;;;;;;;12.07;10.90;;;;;;;3.69;66.79;97849.22;5029201;28;20210;-79
2020/12/04 06:54:59;;;;;;;12.10;10.87;;;;;;;3.72;67.12;97849.91;5032300;28;20261;-79
2020/12/04 06:57:25;;;;;;;12.07;10.77;;;;;;;3.74;67.51;97850.72;5030552;28;20269;-79
2020/12/04 06:59:51;;;;;;;12.03;10.93;;;;;;;3.73;67.71;97848.22;5032984;28;20203;-78
2020/12/04 07:02:19;;;;;;;13.70;12.17;;;;;;;3.58;68.51;97845.22;5030493;28;20202;-79
2020/12/04 07:04:46;;;;;;;13.83;11.70;;;;;;;3.65;68.29;97845.88;5029831;28;20195;-77
2020/12/04 07:07:15;;;;;;;14.43;12.03;;;;;;;3.68;68.97;97844.94;5023196;28;20253;-78
2020/12/04 07:09:43;;;;;;;14.07;11.27;;;;;;;3.66;69.27;97846.72;5020767;28;20258;-77
2020/12/04 07:12:13;;;;;;;13.03;11.73;;;;;;;3.64;69.53;97848.50;5019187;28;20213;-78
2020/12/04 07:14:40;;;;;;;14.67;12.00;;;;;;;3.69;69.27;97841.47;5021929;28;20265;-78
2020/12/04 07:17:05;;;;;;;13.53;12.33;;;;;;;3.64;69.86;97848.50;5022215;28;20648;-77
2020/12/04 07:19:31;;;;;;;13.27;11.67;;;;;;;3.69;69.29;97850.03;5022525;28;20202;-78
2020/12/04 07:21:57;;;;;;;14.97;12.47;;;;;;;3.78;69.26;97846.31;5024773;28;20217;-77
2020/12/04 07:24:24;;;;;;;13.57;12.20;;;;;;;3.82;69.01;97844.47;5025481;28;20202;-78
2020/12/04 07:26:52;;;;;;;15.13;11.63;;;;;;;3.84;69.41;97853.00;5022971;28;20234;-78
2020/12/04 07:29:18;;;;;;;13.20;11.80;;;;;;;3.76;70.24;97843.75;5027589;28;20206;-78
2020/12/04 07:31:47;;;;;;;14.03;12.53;;;;;;;3.78;69.81;97848.88;5025340;28;20616;-78
2020/12/04 07:34:13;;;;;;;13.43;11.03;;;;;;;3.67;70.47;97862.16;5028505;28;20227;-78
2020/12/04 07:36:48;;;;;;;11.43;10.27;;;;;;;3.62;70.77;97843.38;5021906;28;20248;-78
2020/12/04 07:39:22;;;;;;;13.20;11.80;;;;;;;3.55;71.20;97852.22;5020223;28;20202;-78
2020/12/04 07:41:49;;;;;;;13.20;11.27;;;;;;;3.57;71.80;97853.88;5011022;28;20342;-77
2020/12/04 07:44:15;;;;;;;16.50;12.00;;;;;;;3.65;71.54;97848.47;5027292;28;20190;-78
2020/12/04 07:46:42;;;;;;;17.10;12.37;;;;;;;3.69;71.72;97851.78;5025716;28;20568;-79
2020/12/04 07:49:09;;;;;;;14.90;11.93;;;;;;;3.74;71.83;97847.28;5029076;28;20227;-78
2020/12/04 07:51:37;;;;;;;17.17;12.83;;;;;;;3.75;71.87;97849.84;5024078;28;20215;-79
2020/12/04 07:54:06;;;;;;;17.20;12.17;;;;;;;3.76;71.82;97855.81;5024447;28;20222;-79
2020/12/04 07:56:33;;;;;;;14.13;11.60;;;;;;;3.83;71.68;97841.00;5022227;28;20248;-78
2020/12/04 07:59:03;;;;;;;14.83;10.93;;;;;;;3.76;72.53;97848.09;5017110;28;20212;-78
2020/12/04 08:01:29;;;;;;;13.73;11.73;;;;;;;3.81;72.14;97847.97;5015847;28;20687;-78
2020/12/04 08:03:56;;;;;;;16.33;12.57;;;;;;;3.91;72.27;97859.66;5011260;28;20202;-78
2020/12/04 08:06:33;;;;;;;15.50;11.80;;;;;;;3.92;72.24;97864.72;5012266;28;20257;-81
2020/12/04 08:09:13;;;;;;;15.30;11.80;;;;;;;3.94;72.73;97859.53;5024071;28;20255;-79
2020/12/04 08:11:47;;;;;;;15.33;11.53;;;;;;;3.94;72.35;97855.22;5017222;28;20253;-78
2020/12/04 08:14:16;;;;;;;15.97;12.33;;;;;;;4.04;72.22;97863.47;5014563;28;20317;-78
2020/12/04 08:16:42;;;;;;;12.97;11.40;;;;;;;4.07;72.21;97858.22;5015448;28;20272;-79
2020/12/04 08:19:11;;;;;;;15.47;11.80;;;;;;;4.11;72.05;97866.72;5019742;28;20672;-79
2020/12/04 08:21:54;;;;;;;12.83;10.67;;;;;;;4.11;71.80;97856.38;5025450;28;20199;-78
2020/12/04 08:24:23;;;;;;;13.50;11.63;;;;;;;4.18;71.70;97855.25;5019178;28;20751;-77
2020/12/04 08:27:01;;;;;;;17.43;11.20;;;;;;;4.16;72.01;97864.78;5024737;28;20226;-80
2020/12/04 08:29:27;;;;;;;12.10;10.70;;;;;;;4.18;71.88;97856.13;5010295;28;20210;-80
2020/12/04 08:32:17;;;;;;;13.50;10.33;;;;;;;4.24;71.87;97859.38;5016574;28;20215;-79
2020/12/04 08:34:43;;;;;;;14.27;11.17;;;;;;;4.29;71.94;97870.41;5016262;28;20219;-78
2020/12/04 08:37:11;;;;;;;11.73;10.40;;;;;;;4.35;71.54;97867.59;5024772;28;20640;-78
2020/12/04 08:39:46;;;;;;;14.87;11.17;;;;;;;4.34;72.02;97879.66;5028264;28;20209;-79
2020/12/04 08:42:15;;;;;;;13.40;10.27;;;;;;;4.38;72.21;97883.00;5020471;28;20214;-79
2020/12/04 08:44:53;;;;;;;13.97;10.77;;;;;;;4.42;71.85;97881.97;5018552;28;20285;-77
2020/12/04 08:47:25;;;;;;;14.47;11.33;;;;;;;4.48;71.72;97880.91;5025305;28;20217;-77
2020/12/04 08:49:54;;;;;;;12.07;9.93;;;;;;;4.53;71.65;97891.91;5025773;28;20190;-79
2020/12/04 08:52:35;;;;;;;14.17;10.67;;;;;;;4.53;71.85;97894.50;5001583;28;20207;-77
2020/12/04 08:55:06;;;;;;;13.93;11.03;;;;;;;4.51;72.04;97894.56;5015547;28;20211;-79
2020/12/04 08:57:31;;;;;;;15.67;11.43;;;;;;;4.55;72.02;97898.72;5016722;28;20223;-78
2020/12/04 08:59:58;;;;;;;12.37;10.93;;;;;;;4.57;72.00;97906.41;5017228;28;20235;-81
2020/12/04 09:02:24;;;;;;;11.10;9.97;;;;;;;4.62;71.54;97919.16;5014077;28;20216;-79
2020/12/04 09:04:50;;;;;;;12.77;10.53;;;;;;;4.66;71.91;97912.97;5014709;28;20660;-80
2020/12/04 09:07:16;;;;;;;14.20;10.80;;;;;;;4.71;71.55;97911.09;5009631;28;20376;-80
2020/12/04 09:09:41;;;;;;;11.60;10.40;;;;;;;4.69;72.00;97916.31;5014696;28;20443;-78
2020/12/04 09:12:07;;;;;;;13.33;10.37;;;;;;;4.71;71.79;97916.25;5014461;28;20211;-77
2020/12/04 09:14:33;;;;;;;13.83;10.57;;;;;;;4.75;71.60;97915.25;5013935;28;20778;-78
2020/12/04 09:17:00;;;;;;;11.70;9.77;;;;;;;4.70;71.74;97912.84;5014863;28;20230;-77
2020/12/04 09:19:26;;;;;;;10.67;9.00;;;;;;;4.71;72.25;97929.19;5014526;28;20199;-78
2020/12/04 09:21:51;;;;;;;13.65;12.27;;;;;;;4.73;71.56;97925.63;5013210;28;20492;-79
2020/12/04 09:24:17;;;;;;;11.77;10.07;;;;;;;4.83;71.24;97925.31;5013959;28;20195;-78
2020/12/04 09:26:43;;;;;;;11.30;9.77;;;;;;;4.90;71.10;97937.97;5014074;28;20229;-78
2020/12/04 09:29:09;;;;;;;12.17;9.67;;;;;;;4.78;71.12;97941.81;5013738;28;20394;-79
2020/12/04 09:31:35;;;;;;;10.73;9.07;;;;;;;4.81;71.75;97945.19;5014382;28;20210;-79
2020/12/04 09:34:01;;;;;;;10.00;8.63;;;;;;;4.87;71.20;97947.56;5014025;28;20316;-80
2020/12/04 09:36:27;;;;;;;11.57;9.30;;;;;;;4.89;71.08;97956.09;5013979;28;20215;-79
2020/12/04 09:38:53;;;;;;;10.33;8.60;;;;;;;4.93;70.81;97957.66;5013852;28;20281;-79
2020/12/04 09:41:19;;;;;;;13.37;9.07;;;;;;;4.95;70.94;97961.88;5014368;28;20246;-80
2020/12/04 09:43:45;;;;;;;12.10;8.97;;;;;;;4.91;70.77;97969.81;5014054;28;20206;-78
2020/12/04 09:46:11;;;;;;;11.73;10.37;;;;;;;4.93;70.11;97966.25;5013804;28;20234;-78
2020/12/04 09:48:36;;;;;;;10.17;8.93;;;;;;;5.05;70.48;97970.16;5020917;28;20677;-79
2020/12/04 09:51:03;;;;;;;13.40;10.03;;;;;;;5.03;69.70;97960.78;5012903;28;20289;-78
2020/12/04 09:53:29;;;;;;;11.47;8.70;;;;;;;5.07;70.29;97968.34;5014837;28;20211;-77
2020/12/04 09:55:55;;;;;;;10.87;8.70;;;;;;;5.08;69.37;97964.03;5013359;28;20257;-78
2020/12/04 09:58:21;;;;;;;14.03;12.50;;;;;;;5.16;69.57;97965.44;5008872;28;20478;-78
2020/12/04 10:00:46;;;;;;;10.83;9.80;;;;;;;5.22;69.64;97966.97;5013984;28;20206;-79
2020/12/04 10:03:12;;;;;;;13.60;10.63;;;;;;;5.17;68.83;97967.13;5014807;28;20203;-79
2020/12/04 10:05:38;;;;;;;12.47;10.27;;;;;;;5.24;68.79;97966.91;5013651;28;20609;-79
2020/12/04 10:08:05;;;;;;;14.97;12.10;;;;;;;5.31;69.31;97960.59;5021782;28;20463;-78
2020/12/04 10:10:31;;;;;;;14.10;10.57;;;;;;;5.40;68.33;97962.00;5013403;28;20203;-79
2020/12/04 10:12:56;;;;;;;11.70;9.57;;;;;;;5.39;68.43;97955.97;5013113;28;20242;-79
2020/12/04 10:15:22;;;;;;;15.90;10.60;;;;;;;5.47;68.59;97953.09;5012828;28;20228;-79
2020/12/04 10:17:48;;;;;;;13.03;10.57;;;;;;;5.46;67.67;97951.41;5013667;28;20223;-79
2020/12/04 10:20:14;;;;;;;12.13;9.40;;;;;;;5.46;67.61;97933.31;5013733;28;20296;-79
2020/12/04 10:22:40;;;;;;;11.53;8.77;;;;;;;5.46;67.87;97931.56;5013749;28;20234;-79
2020/12/04 10:25:06;;;;;;;12.50;9.47;;;;;;;5.33;67.01;97931.19;5013315;28;20250;-79
2020/12/04 10:27:32;;;;;;;13.33;9.50;;;;;;;5.41;67.25;97917.97;5019551;28;20276;-78
2020/12/04 10:29:58;;;;;;;12.37;9.53;;;;;;;5.41;68.01;97915.38;5015112;28;20210;-78
2020/12/04 10:32:24;;;;;;;11.63;9.87;;;;;;;5.45;66.74;97918.66;5017175;28;20205;-79
2020/12/04 10:34:50;;;;;;;11.77;9.63;;;;;;;5.45;66.89;97906.59;5016217;28;20258;-77
2020/12/04 10:37:16;;;;;;;13.90;10.17;;;;;;;5.40;66.95;97920.59;5013395;28;20258;-78
2020/12/04 10:39:41;;;;;;;10.70;9.47;;;;;;;5.41;66.74;97927.44;5008818;28;20255;-78
2020/12/04 10:42:08;;;;;;;10.83;8.20;;;;;;;5.38;65.81;97923.25;5000105;28;20228;-77
2020/12/04 10:44:35;;;;;;;10.87;9.40;;;;;;;5.39;65.84;97927.50;5018283;28;20203;-79
2020/12/04 10:47:01;;;;;;;10.90;8.43;;;;;;;5.33;65.56;97915.66;5025180;28;20273;-78
2020/12/04 10:49:27;;;;;;;10.70;8.30;;;;;;;5.36;66.27;97915.53;5023763;28;20198;-78
2020/12/04 10:51:56;;;;;;;11.33;8.33;;;;;;;5.34;65.66;97919.09;5021404;28;20614;-77
2020/12/04 10:54:22;;;;;;;9.80;7.77;;;;;;;5.30;65.28;97910.59;5022730;28;20222;-78
2020/12/04 10:56:48;;;;;;;8.63;7.43;;;;;;;5.28;65.76;97916.75;5016876;28;20222;-79
2020/12/04 10:59:15;;;;;;;8.97;8.07;;;;;;;5.31;65.27;97917.47;5022560;28;20264;-80
2020/12/04 11:01:44;;;;;;;8.83;7.67;;;;;;;5.35;64.53;97915.59;5027865;28;20198;-78
2020/12/04 11:06:55;;;;;;;9.63;8.20;;;;;;;5.38;64.85;97912.91;5018257;28;20229;-77
2020/12/04 11:09:21;;;;;;;8.67;7.70;;;;;;;5.40;64.78;97936.13;5027218;28;20207;-79
2020/12/04 11:11:47;;;;;;;8.03;7.13;;;;;;;5.33;65.21;97936.38;5017142;28;20214;-79
2020/12/04 11:14:13;;;;;;;7.87;7.07;;;;;;;5.37;64.12;97925.00;5026836;28;20715;-81
2020/12/04 11:16:41;;;;;;;8.27;7.47;;;;;;;5.44;64.36;97925.59;5022911;28;20194;-78
2020/12/04 11:19:07;;;;;;;11.70;7.43;;;;;;;5.45;64.20;97931.59;5023135;28;20249;-78
2020/12/04 11:21:33;;;;;;;7.87;6.83;;;;;;;5.47;64.79;97934.97;5019574;28;20738;-78
2020/12/04 11:23:59;;;;;;;8.50;6.93;;;;;;;5.53;64.61;97935.59;5023641;28;20305;-80
2020/12/04 11:26:25;;;;;;;8.20;7.40;;;;;;;5.55;64.84;97936.38;5022863;28;20297;-79
2020/12/04 11:28:51;;;;;;;9.10;7.70;;;;;;;5.56;65.57;97945.81;5022693;28;20240;-79
2020/12/04 11:31:17;;;;;;;11.00;8.07;;;;;;;5.62;65.28;97939.56;5025012;28;20285;-78
2020/12/04 11:33:44;;;;;;;9.83;7.40;;;;;;;5.69;65.42;97947.91;5024541;28;20292;-78
2020/12/04 11:36:10;;;;;;;9.87;8.10;;;;;;;5.78;64.03;97947.56;5021008;28;20206;-80
2020/12/04 11:38:36;;;;;;;9.00;7.03;;;;;;;5.84;64.86;97949.91;5026034;28;20698;-78